Pagina principale
METAR-TAF:

METAR-TAF

Aeroporti :

Aeroporto di Belgrado-Nikola Tesla

Belgrado, Serbia

latitudine: 44-49N, longitudine: 020-17E, altezza: 96 m

Osservazione

Il bollettino è stato emesso 12 minuti fa, alle 10:30 UTC
Vento 16 kt da est/sud-est
Temperature 22°C
Umidità 33%
Pressione 1022 hPa
Visibilità 10 km o più
nessuna nube inferiore a 1500 m e nessun cumulonembo

METAR: LYBE 151030Z 12016KT CAVOK 22/05 Q1022 NOSIG

Ora: 12:42 (10:42 UTC)

Previsione

Il bollettino è stato emesso 5 ore e 42 minuti fa, alle 05:00 UTC
Previsione valida dal 15 alle 06 UTC al 16 alle 06 UTC
Vento 12 kt da est/sud-est
Visibilità 10 km o più
nessuna nube inferiore a 1500 m e nessun cumulonembo

TAF: LYBE 150500Z 1506/1606 12012KT CAVOK TX22/1513Z TN10/1605Z

Osservazioni e previsioni meteorologiche di più di 4000 aeroporti (messaggi METAR e TAF).

Le stazioni disponibili sono rappresentate dai dischi gialli e rossi sulla carta.

Puntare il mouse per vedere il nome della stazione.

Clicca sopra per visualizzare le osservazioni e previsioni meteorologiche.

Per cambiare la mappa : fare clic sui pulsanti verdi con una croce nera per ingrandire, il pulsante verde con un trattino per diminuire, o sulla freccia verde per le mappe adiacenti.


METAR-TAF: